createdAt,value
2023-01-01T00:02:58.227Z,12.60
2023-01-01T00:08:20.442Z,14.30
2023-01-01T00:13:42.676Z,15.40
2023-01-01T00:19:04.508Z,17.10
2023-01-01T00:24:26.483Z,14.20
2023-01-01T00:29:48.108Z,14.70
2023-01-01T00:35:10.279Z,15.00
2023-01-01T00:40:31.921Z,12.60
2023-01-01T00:45:53.961Z,12.90
2023-01-01T00:51:15.647Z,10.90
2023-01-01T00:56:37.540Z,13.00
2023-01-01T01:01:59.756Z,13.90
2023-01-01T01:07:21.648Z,13.60
2023-01-01T01:12:43.364Z,14.30
2023-01-01T01:18:05.235Z,14.30
2023-01-01T01:23:27.268Z,13.80
2023-01-01T01:28:50.347Z,13.40
2023-01-01T01:34:16.003Z,14.70
2023-01-01T01:39:40.793Z,13.60
2023-01-01T01:45:11.098Z,12.70
2023-01-01T01:50:34.778Z,12.30
2023-01-01T01:56:00.779Z,11.90
2023-01-01T02:01:22.198Z,13.30
2023-01-01T02:06:45.964Z,11.70
2023-01-01T02:12:07.635Z,13.30
2023-01-01T02:17:39.076Z,12.40
2023-01-01T02:23:26.148Z,13.70
2023-01-01T02:29:03.627Z,12.90
2023-01-01T02:34:30.347Z,8.80
2023-01-01T02:39:56.799Z,12.40
2023-01-01T02:45:18.736Z,11.90
2023-01-01T02:50:40.711Z,11.70
2023-01-01T02:56:13.473Z,14.00
2023-01-01T03:01:58.808Z,17.00
2023-01-01T03:07:32.738Z,15.60
2023-01-01T03:13:00.975Z,15.70
2023-01-01T03:23:54.514Z,15.70
2023-01-01T03:29:16.314Z,15.70
2023-01-01T03:34:42.122Z,16.20
2023-01-01T03:40:05.960Z,15.90
2023-01-01T03:45:38.180Z,12.30
2023-01-01T03:51:09.173Z,12.50
2023-01-01T03:56:53.999Z,19.50
2023-01-01T04:02:19.190Z,12.10
2023-01-01T04:13:04.801Z,12.60
2023-01-01T04:18:26.243Z,12.10
2023-01-01T04:23:48.438Z,13.50
2023-01-01T04:29:10.040Z,15.00
2023-01-01T04:34:31.991Z,12.90
2023-01-01T04:39:53.650Z,15.20
2023-01-01T04:45:15.704Z,10.70
2023-01-01T04:50:37.655Z,12.10
2023-01-01T04:56:09.696Z,10.90
2023-01-01T05:01:34.965Z,10.10
2023-01-01T05:06:57.025Z,9.50
2023-01-01T05:12:18.971Z,9.10
2023-01-01T05:17:40.665Z,8.10
2023-01-01T05:23:02.654Z,8.50
2023-01-01T05:28:24.889Z,9.10
2023-01-01T05:33:47.180Z,8.20
2023-01-01T05:39:10.509Z,6.90
2023-01-01T05:44:32.344Z,6.60
2023-01-01T05:49:54.838Z,6.10
2023-01-01T05:55:16.631Z,6.10
2023-01-01T06:00:38.793Z,5.10
2023-01-01T06:06:08.473Z,5.20
2023-01-01T06:11:31.460Z,6.20
2023-01-01T06:16:53.140Z,7.10
2023-01-01T06:22:16.638Z,6.00
2023-01-01T06:27:38.770Z,5.40
2023-01-01T06:33:01.405Z,6.80
2023-01-01T06:38:23.642Z,8.00
2023-01-01T06:43:46.201Z,8.00
2023-01-01T06:49:11.085Z,8.20
2023-01-01T06:54:33.006Z,9.30
2023-01-01T06:59:54.670Z,6.30
2023-01-01T07:05:16.529Z,9.50
2023-01-01T07:10:38.293Z,8.10
2023-01-01T07:16:00.561Z,6.50
2023-01-01T07:21:31.259Z,7.70
2023-01-01T07:26:53.035Z,8.50
2023-01-01T07:32:14.972Z,7.50
2023-01-01T07:37:36.906Z,7.40
2023-01-01T07:42:58.871Z,11.60
2023-01-01T07:48:20.523Z,9.10
2023-01-01T07:53:42.236Z,7.50
2023-01-01T07:59:05.002Z,7.10
2023-01-01T08:04:29.820Z,6.90
2023-01-01T08:09:51.750Z,6.80
2023-01-01T08:15:14.929Z,7.20
2023-01-01T08:20:36.842Z,6.40
2023-01-01T08:26:00.387Z,7.60
2023-01-01T08:31:22.913Z,7.60
2023-01-01T08:36:44.736Z,6.80
2023-01-01T08:42:12.239Z,7.00
2023-01-01T08:47:34.763Z,6.80
2023-01-01T08:52:58.999Z,19.00
2023-01-01T08:58:20.676Z,6.80
2023-01-01T09:03:42.524Z,7.40
2023-01-01T09:09:04.187Z,6.90
2023-01-01T09:14:26.015Z,8.30
2023-01-01T09:19:50.060Z,7.90
2023-01-01T09:25:11.985Z,15.00
2023-01-01T09:30:34.905Z,11.40
2023-01-01T09:36:12.057Z,7.10
2023-01-01T09:41:42.959Z,6.60
2023-01-01T09:47:06.363Z,7.20
2023-01-01T09:52:41.516Z,6.60
2023-01-01T09:58:03.460Z,7.30
2023-01-01T10:03:27.928Z,6.20
2023-01-01T10:09:09.881Z,5.80
2023-01-01T10:14:37.083Z,5.80
2023-01-01T10:20:10.440Z,5.60
2023-01-01T10:25:34.162Z,7.60
2023-01-01T10:31:16.509Z,6.10
2023-01-01T10:36:38.786Z,3.40
2023-01-01T10:42:01.327Z,7.20
2023-01-01T10:47:28.866Z,6.60
2023-01-01T10:52:56.454Z,4.70
2023-01-01T10:58:51.020Z,5.50
2023-01-01T11:04:15.900Z,6.10
2023-01-01T11:09:39.635Z,7.00
2023-01-01T11:15:01.880Z,4.80
2023-01-01T11:20:23.692Z,4.60
2023-01-01T11:26:09.255Z,9.00
2023-01-01T11:31:37.116Z,6.90
2023-01-01T11:37:14.471Z,7.80
2023-01-01T11:42:37.173Z,7.80
2023-01-01T11:48:01.318Z,7.50
2023-01-01T11:53:23.114Z,7.80
2023-01-01T11:58:55.119Z,7.60
2023-01-01T12:04:25.291Z,8.10
2023-01-01T12:10:03.920Z,6.80
2023-01-01T12:16:08.171Z,8.00
2023-01-01T12:21:31.343Z,6.50
2023-01-01T12:27:23.560Z,5.70
2023-01-01T12:33:08.213Z,5.50
2023-01-01T12:38:52.127Z,5.90
2023-01-01T12:44:32.253Z,6.50
2023-01-01T12:49:57.667Z,5.00
2023-01-01T12:55:38.072Z,4.80
2023-01-01T13:06:38.575Z,5.00
2023-01-01T13:12:05.155Z,5.30
2023-01-01T13:17:29.339Z,8.30
2023-01-01T13:22:51.068Z,4.60
2023-01-01T13:28:13.330Z,4.30
2023-01-01T13:33:37.160Z,4.70
2023-01-01T13:39:07.650Z,4.50
2023-01-01T13:44:29.628Z,4.40
2023-01-01T13:50:23.948Z,5.00
2023-01-01T13:55:54.687Z,5.60
2023-01-01T14:01:30.722Z,6.90
2023-01-01T14:06:54.843Z,6.20
2023-01-01T14:12:21.261Z,6.30
2023-01-01T14:17:44.033Z,5.20
2023-01-01T14:23:16.448Z,5.20
2023-01-01T14:28:38.458Z,6.10
2023-01-01T14:34:01.896Z,12.20
2023-01-01T14:39:28.414Z,10.50
2023-01-01T14:44:50.934Z,12.60
2023-01-01T14:50:19.447Z,9.40
2023-01-01T14:55:43.640Z,7.40
2023-01-01T15:01:23.404Z,9.80
2023-01-01T15:06:45.524Z,12.10
2023-01-01T15:12:12.681Z,13.40
2023-01-01T15:17:45.990Z,14.70
2023-01-01T15:23:14.960Z,16.60
2023-01-01T15:33:58.797Z,12.80
2023-01-01T15:39:21.743Z,17.40
2023-01-01T15:44:44.643Z,13.00
2023-01-01T15:50:09.085Z,12.50
2023-01-01T15:55:33.483Z,10.50
2023-01-01T16:01:00.702Z,10.30
2023-01-01T16:06:27.537Z,12.20
2023-01-01T16:11:54.348Z,14.50
2023-01-01T16:17:17.970Z,14.40
2023-01-01T16:22:39.656Z,12.60
2023-01-01T16:28:02.275Z,14.40
2023-01-01T16:33:24.383Z,16.90
2023-01-01T16:38:58.177Z,29.90
2023-01-01T16:44:24.394Z,18.20
2023-01-01T16:49:49.452Z,16.90
2023-01-01T16:55:11.043Z,11.90
2023-01-01T17:00:32.926Z,13.70
2023-01-01T17:05:54.961Z,11.20
2023-01-01T17:11:17.796Z,10.70
2023-01-01T17:16:40.384Z,11.50
2023-01-01T17:22:04.595Z,12.30
2023-01-01T17:27:26.100Z,11.90
2023-01-01T17:32:50.404Z,12.90
2023-01-01T17:38:12.287Z,12.90
2023-01-01T17:43:35.503Z,20.80
2023-01-01T17:48:57.612Z,17.50
2023-01-01T17:54:19.688Z,16.90
2023-01-01T17:59:41.833Z,18.60
2023-01-01T18:05:07.167Z,15.00
2023-01-01T18:10:28.803Z,15.70
2023-01-01T18:15:50.522Z,16.30
2023-01-01T18:21:14.599Z,16.40
2023-01-01T18:26:37.770Z,16.50
2023-01-01T18:31:59.339Z,19.90
2023-01-01T18:37:22.768Z,18.20
2023-01-01T18:42:50.561Z,25.30
2023-01-01T18:48:13.215Z,21.30
2023-01-01T18:53:34.886Z,20.70
2023-01-01T18:58:57.165Z,21.10
2023-01-01T19:04:19.719Z,17.30
2023-01-01T19:09:41.800Z,17.20
2023-01-01T19:15:18.845Z,18.20
2023-01-01T19:20:40.309Z,20.30
2023-01-01T19:26:04.382Z,26.10
2023-01-01T19:31:26.469Z,31.00
2023-01-01T19:36:48.833Z,38.90
2023-01-01T19:42:11.511Z,31.00
2023-01-01T19:47:33.452Z,20.60
2023-01-01T19:52:55.294Z,19.10
2023-01-01T19:58:19.918Z,15.70
2023-01-01T20:03:57.620Z,14.60
2023-01-01T20:09:19.448Z,13.60
2023-01-01T20:14:41.263Z,11.70
2023-01-01T20:20:02.870Z,13.10
2023-01-01T20:25:24.884Z,13.20
2023-01-01T20:30:46.949Z,12.00
2023-01-01T20:36:27.827Z,12.70
2023-01-01T20:41:50.175Z,12.90
2023-01-01T20:47:12.948Z,11.50
2023-01-01T20:52:35.018Z,16.00
2023-01-01T20:57:57.239Z,15.30
2023-01-01T21:03:20.904Z,13.50
2023-01-01T21:08:46.636Z,12.80
2023-01-01T21:14:12.227Z,13.70
2023-01-01T21:19:36.463Z,19.90
2023-01-01T21:25:24.103Z,19.50
2023-01-01T21:30:55.444Z,17.90
2023-01-01T21:36:20.073Z,17.90
2023-01-01T21:41:41.971Z,17.20
2023-01-01T21:47:16.384Z,16.90
2023-01-01T21:52:42.696Z,16.20
2023-01-01T21:58:41.537Z,17.50
2023-01-01T22:04:09.552Z,14.80
2023-01-01T22:09:42.196Z,14.00
2023-01-01T22:15:38.776Z,13.80
2023-01-01T22:21:02.797Z,14.40
2023-01-01T22:26:27.972Z,14.20
2023-01-01T22:31:57.897Z,14.80
2023-01-01T22:37:22.864Z,18.00
2023-01-01T22:42:44.678Z,17.70
2023-01-01T22:48:07.578Z,14.40
2023-01-01T22:53:29.180Z,12.90
2023-01-01T22:58:56.831Z,16.00
2023-01-01T23:04:19.136Z,16.10
2023-01-01T23:09:41.732Z,16.20
2023-01-01T23:15:23.195Z,18.50
2023-01-01T23:20:44.894Z,18.50
2023-01-01T23:26:08.454Z,16.10
2023-01-01T23:31:30.119Z,15.30
2023-01-01T23:36:53.412Z,17.50
2023-01-01T23:42:15.240Z,14.40
2023-01-01T23:47:37.171Z,15.40
2023-01-01T23:52:59.111Z,16.90
2023-01-01T23:58:20.539Z,11.90
